FL39 weather

Wellington Medical Center Heliport
West Palm Beach, Florida, United States

Public forecast

Using degrees Fahrenheit for public forecast. Weather courtesy of forecast.io.

METAR (pilot weather report)

Closest report is Palm Beach International Airport, 6.5 nm (12.0 km) ENE. Retrieved 2019/06/19 07:53 UTC (1 hour ago):

KPBI 190753Z 00000KT 10SM BKN150 BKN250 24/22 A3003 RMK AO2 SLP168 T02440217

TAF (pilot weather forecast)

Closest forecast is Palm Beach International Airport, 6.5 nm (12.0 km) ENE. Retrieved 2019/06/19 06:24 UTC (3 hours ago):

TAF KPBI 190520Z 1906/2006 VRB03KT P6SM FEW020 SCT120 BKN250 FM191500 19008KT P6SM VCSH SCT030 SCT060 FM191700 17012KT P6SM VCTS SCT025CB BKN120 PROB30 1917/1923 VRB10G20KT 4SM TSRA BKN035CB FM200100 VRB04KT P6SM SCT020 BKN150